Time;durP1;ratioP1;P1;durP2;ratioP2;P2;SDS_P1;SDS_P2;PMS_P1;PMS_P2;Temp;Humidity;BMP_temperature;BMP_pressure;BME280_temperature;BME280_humidity;BME280_pressure;Samples;Min_cycle;Max_cycle;Signal;HPM_P1;HPM_P2
2022/06/12 00:01:17;;;;;;;;;2.67;2.00;;;;;22.39;40.51;101951.78;5052194;28;45403;-68
2022/06/12 00:03:43;;;;;;;;;1.00;1.00;;;;;22.38;40.37;101958.91;5051485;28;45738;-67
2022/06/12 00:06:13;;;;;;;;;4.00;2.00;;;;;22.34;40.68;101951.03;5050621;28;45636;-67
2022/06/12 00:08:44;;;;;;;;;4.00;2.00;;;;;22.36;40.25;101966.09;5052702;28;45281;-70
2022/06/12 00:11:12;;;;;;;;;1.00;1.00;;;;;22.34;40.43;101964.38;5055407;28;45508;-67
2022/06/12 00:13:48;;;;;;;;;3.00;1.00;;;;;22.19;40.42;101944.31;5057324;28;45429;-69
2022/06/12 00:16:22;;;;;;;;;4.67;2.67;;;;;22.18;40.77;101950.53;5053217;28;45381;-66
2022/06/12 00:18:48;;;;;;;;;2.00;2.00;;;;;22.22;40.73;101957.59;5050044;28;45589;-66
2022/06/12 00:21:15;;;;;;;;;2.00;1.00;;;;;22.14;40.68;101946.19;5047741;28;45319;-65
2022/06/12 00:23:46;;;;;;;;;1.67;1.67;;;;;22.19;41.05;101953.19;5036158;28;47231;-66
2022/06/12 00:26:17;;;;;;;;;1.00;1.00;;;;;22.19;40.79;101960.31;5040406;28;45514;-67
2022/06/12 00:28:42;;;;;;;;;1.33;1.33;;;;;22.08;41.11;101941.03;5039791;28;45747;-69
2022/06/12 00:31:08;;;;;;;;;2.67;2.00;;;;;22.00;41.11;101941.25;5039684;28;45318;-67
2022/06/12 00:33:34;;;;;;;;;2.67;2.67;;;;;22.11;41.01;101956.97;5037978;28;45416;-69
2022/06/12 00:36:01;;;;;;;;;1.00;1.00;;;;;22.05;41.40;101957.13;5049392;28;45560;-67
2022/06/12 00:38:26;;;;;;;;;2.00;2.00;;;;;22.07;40.81;101964.19;5051554;28;45652;-66
2022/06/12 00:40:52;;;;;;;;;4.00;3.00;;;;;21.99;40.94;101961.69;5055389;28;45451;-66
2022/06/12 00:43:18;;;;;;;;;2.00;2.00;;;;;22.00;41.04;101974.13;5057241;28;46603;-67
2022/06/12 00:45:53;;;;;;;;;1.33;1.00;;;;;21.85;41.23;101953.16;5047142;28;45582;-67
2022/06/12 00:48:21;;;;;;;;;4.33;1.00;;;;;21.91;41.54;101976.16;5035028;28;45503;-66
2022/06/12 00:50:55;;;;;;;;;2.00;2.00;;;;;21.67;41.40;101938.53;5041362;28;45608;-66
2022/06/12 00:53:25;;;;;;;;;3.67;1.00;;;;;21.61;41.60;101936.00;5040152;28;46481;-67
2022/06/12 00:56:00;;;;;;;;;2.00;2.00;;;;;21.78;41.54;101967.56;5038334;28;45518;-67
2022/06/12 00:58:31;;;;;;;;;2.67;2.00;;;;;21.72;41.79;101957.09;5039413;28;45476;-68
2022/06/12 01:00:57;;;;;;;;;2.33;1.67;;;;;21.68;41.66;101950.06;5040125;28;46720;-67
2022/06/12 01:03:23;;;;;;;;;1.00;1.00;;;;;21.70;41.73;101956.25;5038247;28;46109;-67
2022/06/12 01:08:34;;;;;;;;;1.00;1.00;;;;;21.72;41.87;101957.97;5037963;28;45728;-68
2022/06/12 01:11:05;;;;;;;;;1.33;0.00;;;;;21.69;41.91;101957.13;5038365;28;45372;-66
2022/06/12 01:13:36;;;;;;;;;1.00;1.00;;;;;21.70;42.02;101964.25;5038204;28;45675;-67
2022/06/12 01:16:13;;;;;;;;;1.00;0.67;;;;;21.64;42.22;101956.38;5038463;28;46186;-68
2022/06/12 01:18:45;;;;;;;;;4.33;1.67;;;;;21.61;42.32;101954.66;5038593;28;45445;-66
2022/06/12 01:21:59;;;;;;;;;1.67;1.67;;;;;21.62;42.31;101961.78;5038157;28;45410;-66
2022/06/12 01:25:01;;;;;;;;;4.67;1.00;;;;;21.56;42.24;101957.44;4964457;28;46068;-69
2022/06/12 01:27:57;;;;;;;;;1.67;1.67;;;;;21.49;42.68;101965.63;5052249;28;45439;-67
2022/06/12 01:30:29;;;;;;;;;2.33;1.33;;;;;21.38;42.48;101955.22;5040839;28;45441;-67
2022/06/12 01:33:27;;;;;;;;;1.00;1.00;;;;;21.50;42.81;101970.06;5040529;28;45334;-68
2022/06/12 01:36:05;;;;;;;;;2.00;2.00;;;;;21.49;42.43;101971.84;5058574;28;46377;-67
2022/06/12 01:38:52;;;;;;;;;1.67;1.33;;;;;21.47;42.24;101965.66;5057277;28;45499;-64
2022/06/12 01:41:38;;;;;;;;;2.00;0.67;;;;;21.45;42.48;101972.84;5058677;28;45395;-68
2022/06/12 01:44:12;;;;;;;;;4.67;1.33;;;;;21.43;42.54;101965.78;5058951;28;45204;-66
2022/06/12 01:47:16;;;;;;;;;2.00;2.00;;;;;21.36;42.29;101975.69;5058184;28;46044;-67
2022/06/12 01:50:21;;;;;;;;;2.00;1.00;;;;;21.34;42.61;101972.19;5026139;28;45454;-68
2022/06/12 01:53:26;;;;;;;;;3.33;2.00;;;;;21.30;42.34;101970.50;5024979;28;45588;-67
2022/06/12 01:56:50;;;;;;;;;2.00;2.00;;;;;21.27;42.41;101967.91;5047997;28;45236;-67
2022/06/12 02:00:06;;;;;;;;;2.00;2.00;;;;;21.25;42.76;101967.06;4988122;28;46150;-66
2022/06/12 02:02:47;;;;;;;;;1.33;1.33;;;;;21.18;42.41;101971.66;4975817;28;45821;-66
2022/06/12 02:05:37;;;;;;;;;1.00;1.00;;;;;21.16;42.75;101973.47;4975722;28;45890;-68
2022/06/12 02:08:26;;;;;;;;;2.00;1.00;;;;;21.15;42.66;101979.72;5036713;28;45521;-67
2022/06/12 02:13:10;;;;;;;;;2.00;1.00;;;;;21.16;42.60;101976.13;5058121;28;45637;-69
2022/06/12 02:13:45;;;;;;;;;1.00;1.00;;;;;21.14;42.56;101977.94;5057780;28;45412;-66
2022/06/12 02:16:18;;;;;;;;;2.33;2.00;;;;;21.13;42.69;101979.75;5058031;28;45363;-67
2022/06/12 02:18:46;;;;;;;;;1.67;1.67;;;;;21.14;42.85;101984.19;5058061;28;45378;-67
2022/06/12 02:21:20;;;;;;;;;1.00;1.00;;;;;21.10;42.47;101984.28;5057615;28;45376;-67
2022/06/12 02:23:58;;;;;;;;;2.00;1.00;;;;;20.95;42.73;101961.50;5057689;28;45398;-68
2022/06/12 02:26:36;;;;;;;;;1.67;1.67;;;;;20.87;42.73;101960.78;5057792;28;45340;-66
2022/06/12 02:29:09;;;;;;;;;1.00;1.00;;;;;20.81;42.56;101964.47;5044468;28;45521;-69
2022/06/12 02:31:46;;;;;;;;;1.00;1.00;;;;;20.89;42.88;101981.16;5037999;28;45423;-67
2022/06/12 02:34:17;;;;;;;;;1.00;1.00;;;;;20.85;43.09;101990.13;5050287;28;45241;-67
2022/06/12 02:36:49;;;;;;;;;1.33;1.00;;;;;20.69;43.24;101954.97;5058224;28;45544;-68
2022/06/12 02:39:23;;;;;;;;;2.00;1.00;;;;;20.82;43.30;101986.66;5057859;28;45366;-68
2022/06/12 02:41:53;;;;;;;;;4.00;1.00;;;;;20.80;43.23;101991.13;5057778;28;45456;-67
2022/06/12 02:44:31;;;;;;;;;2.00;1.00;;;;;20.84;43.17;102006.13;5039644;28;45467;-69
2022/06/12 02:47:07;;;;;;;;;2.67;1.33;;;;;20.83;43.19;101997.25;5057882;28;45267;-68
2022/06/12 02:49:36;;;;;;;;;1.00;1.00;;;;;20.85;42.96;101991.91;5057825;28;45429;-68
2022/06/12 02:52:11;;;;;;;;;3.67;2.33;;;;;20.83;43.07;101986.59;5057164;28;46080;-67
2022/06/12 02:55:16;;;;;;;;;1.00;1.00;;;;;20.82;43.07;101986.66;5057487;28;45569;-67
2022/06/12 02:58:10;;;;;;;;;1.00;1.00;;;;;20.81;43.09;101983.13;5058397;28;45776;-67
2022/06/12 03:00:40;;;;;;;;;1.00;1.00;;;;;20.79;43.23;101992.06;5057614;28;45556;-68
2022/06/12 03:03:21;;;;;;;;;1.33;1.33;;;;;20.74;43.34;101993.00;5058121;28;45673;-67
2022/06/12 03:05:53;;;;;;;;;2.33;1.33;;;;;20.72;43.20;101997.47;5040194;28;45430;-66
2022/06/12 03:08:25;;;;;;;;;2.33;1.00;;;;;20.69;43.52;101988.66;5057351;28;45279;-68
2022/06/12 03:11:18;;;;;;;;;1.00;1.00;;;;;20.63;43.82;101978.16;5057960;28;45623;-69
2022/06/12 03:13:45;;;;;;;;;1.33;1.33;;;;;20.64;43.74;101990.56;5056790;28;46122;-70
2022/06/12 03:16:19;;;;;;;;;1.67;1.67;;;;;20.62;43.67;101982.63;5057713;28;45488;-69
2022/06/12 03:18:54;;;;;;;;;2.00;2.00;;;;;20.60;43.89;101989.75;5057277;28;45367;-70
2022/06/12 03:21:36;;;;;;;;;1.00;1.00;;;;;20.51;43.82;101972.13;5057281;28;45412;-68
2022/06/12 03:24:21;;;;;;;;;3.00;1.67;;;;;20.58;43.99;101991.56;5056829;28;45459;-66
2022/06/12 03:26:53;;;;;;;;;1.00;1.00;;;;;20.58;43.72;101994.22;5056904;28;45505;-66
2022/06/12 03:29:47;;;;;;;;;1.00;1.00;;;;;20.57;43.75;102000.44;5042554;28;45270;-69
2022/06/12 03:32:25;;;;;;;;;2.00;1.00;;;;;20.58;43.82;101990.69;5048596;28;45521;-66
2022/06/12 03:35:08;;;;;;;;;1.00;1.00;;;;;20.53;43.64;101982.75;5056911;28;46250;-68
2022/06/12 03:38:28;;;;;;;;;3.00;1.00;;;;;20.53;44.01;101978.31;5057292;28;45375;-67
2022/06/12 03:41:06;;;;;;;;;1.00;1.00;;;;;20.56;43.94;101989.84;4975332;28;45627;-70
2022/06/12 03:43:41;;;;;;;;;4.33;1.67;;;;;20.57;43.95;101986.25;5034799;28;45478;-64
2022/06/12 03:46:47;;;;;;;;;2.00;1.00;;;;;20.54;43.63;101992.50;5056916;28;45464;-69
2022/06/12 03:49:59;;;;;;;;;2.00;2.00;;;;;20.41;43.59;101967.91;5056458;28;45453;-69
2022/06/12 03:52:36;;;;;;;;;1.67;1.00;;;;;20.53;43.89;101990.75;5057143;28;45491;-69
2022/06/12 03:55:18;;;;;;;;;1.00;1.00;;;;;20.50;43.74;101982.78;5056576;28;45779;-65
2022/06/12 03:57:52;;;;;;;;;2.00;2.00;;;;;20.52;43.93;101981.00;5057002;28;45308;-68
2022/06/12 04:00:38;;;;;;;;;1.67;1.00;;;;;20.51;43.74;101990.75;5056566;28;46019;-65
2022/06/12 04:03:09;;;;;;;;;3.33;2.00;;;;;20.52;43.61;101981.00;5056481;28;45751;-69
2022/06/12 04:05:42;;;;;;;;;2.00;2.00;;;;;20.52;43.93;101991.63;5056558;28;45359;-69
2022/06/12 04:08:14;;;;;;;;;2.00;1.67;;;;;20.44;43.92;101969.63;5038218;28;48114;-66
2022/06/12 04:10:40;;;;;;;;;1.00;1.00;;;;;20.51;43.72;101980.13;5056863;28;45548;-69
2022/06/12 04:13:22;;;;;;;;;3.00;1.00;;;;;20.40;43.79;101966.13;5056816;28;45530;-66
2022/06/12 04:15:58;;;;;;;;;3.00;1.00;;;;;20.52;43.90;101978.31;5056788;28;45596;-67
2022/06/12 04:18:26;;;;;;;;;4.00;2.00;;;;;20.51;43.83;101976.59;5058309;28;46180;-68
2022/06/12 04:20:55;;;;;;;;;1.00;1.00;;;;;20.56;43.83;101977.41;5038495;28;45366;-69
2022/06/12 04:23:39;;;;;;;;;1.00;1.00;;;;;20.48;43.95;101963.34;5056477;28;45359;-66
2022/06/12 04:26:14;;;;;;;;;3.00;2.00;;;;;20.58;43.78;101982.72;5057953;28;45356;-64
2022/06/12 04:28:44;;;;;;;;;2.00;2.00;;;;;20.60;44.00;101986.22;5056318;28;46171;-66
2022/06/12 04:31:16;;;;;;;;;4.33;2.00;;;;;20.58;44.25;101975.59;5056137;28;45499;-65
2022/06/12 04:34:11;;;;;;;;;1.00;1.00;;;;;20.62;44.07;101990.59;5056545;28;45502;-65
2022/06/12 04:36:37;;;;;;;;;2.00;0.33;;;;;20.65;43.80;101989.66;5056345;28;45383;-67
2022/06/12 04:39:04;;;;;;;;;3.00;1.00;;;;;20.66;44.15;101994.06;5055675;28;46233;-66
2022/06/12 04:41:33;;;;;;;;;2.00;2.00;;;;;20.67;43.91;102002.03;5055794;28;45177;-66
2022/06/12 04:43:58;;;;;;;;;3.00;1.67;;;;;20.67;44.23;101991.38;5056028;28;45492;-65
2022/06/12 04:46:25;;;;;;;;;6.00;2.33;;;;;20.71;44.14;101995.72;5055854;28;45382;-65
2022/06/12 04:48:55;;;;;;;;;2.00;1.33;;;;;20.70;44.05;101983.31;5055753;28;45618;-67
2022/06/12 04:51:21;;;;;;;;;5.00;2.33;;;;;20.76;43.73;101984.97;5055874;28;45267;-66
2022/06/12 04:53:47;;;;;;;;;2.00;1.67;;;;;20.73;43.69;101983.25;5055908;28;45815;-66
2022/06/12 04:56:16;;;;;;;;;2.67;2.67;;;;;20.75;43.79;101983.22;5057322;28;45638;-68
2022/06/12 04:58:50;;;;;;;;;2.00;2.00;;;;;20.62;44.00;101963.09;5059000;28;46519;-65
2022/06/12 05:01:16;;;;;;;;;2.00;2.00;;;;;20.83;43.70;101985.72;5057800;28;45613;-67
2022/06/12 05:03:41;;;;;;;;;1.67;1.67;;;;;20.88;43.79;101976.75;5059321;28;45565;-64
2022/06/12 05:06:07;;;;;;;;;2.00;2.00;;;;;20.94;43.88;101973.06;5059697;28;45406;-65
2022/06/12 05:08:34;;;;;;;;;2.00;1.00;;;;;20.98;43.86;101974.78;5058776;28;45985;-65
2022/06/12 05:11:00;;;;;;;;;5.00;3.00;;;;;21.02;43.50;101976.44;5059206;28;45355;-64
2022/06/12 05:13:26;;;;;;;;;1.00;1.00;;;;;21.08;43.71;101986.09;5059059;28;45319;-65
2022/06/12 05:15:51;;;;;;;;;2.00;2.00;;;;;21.13;43.21;101974.41;5058900;28;45470;-66
2022/06/12 05:18:19;;;;;;;;;0.00;0.00;;;;;21.14;43.51;101970.84;5058947;28;45493;-67
2022/06/12 05:20:46;;;;;;;;;2.00;1.33;;;;;21.02;43.37;101951.59;5059245;28;45478;-67
2022/06/12 05:23:12;;;;;;;;;2.00;2.00;;;;;21.08;43.50;101970.97;5059457;28;45355;-67
2022/06/12 05:25:39;;;;;;;;;2.33;2.00;;;;;21.05;43.42;101967.53;5059411;28;45478;-65
2022/06/12 05:28:18;;;;;;;;;4.67;2.67;;;;;21.08;43.44;101970.13;5058660;28;45457;-67
2022/06/12 05:30:44;;;;;;;;;2.00;2.00;;;;;21.16;43.43;101973.47;5040449;28;45312;-68
2022/06/12 05:33:11;;;;;;;;;5.67;2.00;;;;;21.22;43.20;101973.34;5058508;28;45478;-66
2022/06/12 05:35:38;;;;;;;;;1.67;1.00;;;;;21.28;43.01;101959.00;5059116;28;45455;-66
2022/06/12 05:38:05;;;;;;;;;2.00;2.00;;;;;21.20;43.46;101958.31;5058637;28;45386;-65
2022/06/12 05:40:35;;;;;;;;;1.67;1.67;;;;;21.23;43.71;101966.22;5058786;28;45399;-69
2022/06/12 05:43:01;;;;;;;;;2.00;2.00;;;;;21.29;43.58;101963.44;5058836;28;45347;-67
2022/06/12 05:45:29;;;;;;;;;1.00;1.00;;;;;21.44;42.78;101971.06;5058745;28;45348;-68
2022/06/12 05:48:10;;;;;;;;;2.00;1.00;;;;;21.54;42.43;101974.41;5058258;28;45424;-67
2022/06/12 05:50:45;;;;;;;;;3.33;3.33;;;;;21.55;42.17;101966.38;5040156;28;45374;-67
2022/06/12 05:53:11;;;;;;;;;2.33;1.33;;;;;21.43;41.95;101960.44;5058152;28;45291;-67
2022/06/12 05:55:37;;;;;;;;;2.00;1.67;;;;;21.32;42.17;101969.53;5058403;28;45308;-67
2022/06/12 05:58:03;;;;;;;;;3.00;1.33;;;;;21.29;43.66;101969.63;5058705;28;45534;-65
2022/06/12 06:00:31;;;;;;;;;2.00;2.00;;;;;21.34;43.11;101974.84;5057818;28;45355;-66
2022/06/12 06:02:56;;;;;;;;;4.33;2.00;;;;;21.43;43.52;101988.00;5040545;28;45435;-66
2022/06/12 06:05:23;;;;;;;;;2.00;2.00;;;;;21.55;43.76;101993.03;5058201;28;45465;-66
2022/06/12 06:07:49;;;;;;;;;2.00;2.00;;;;;21.71;43.14;101996.22;5057785;28;46247;-66
2022/06/12 06:10:22;;;;;;;;;2.33;1.00;;;;;21.82;42.46;102001.25;5039854;28;45360;-67
2022/06/12 06:12:48;;;;;;;;;1.33;1.33;;;;;21.78;42.37;101991.56;5058337;28;45268;-68
2022/06/12 06:15:14;;;;;;;;;2.00;2.00;;;;;21.72;42.47;101991.75;5039937;28;45255;-68
2022/06/12 06:17:41;;;;;;;;;3.67;2.00;;;;;21.74;42.61;102000.59;5058143;28;45284;-67
2022/06/12 06:20:09;;;;;;;;;4.00;4.00;;;;;21.84;42.27;101998.56;5057460;28;45411;-65
2022/06/12 06:22:34;;;;;;;;;3.00;3.00;;;;;21.76;40.88;102002.31;5046163;28;45499;-66
2022/06/12 06:25:00;;;;;;;;;2.00;2.00;;;;;21.67;41.21;102001.66;5055671;28;45535;-66
2022/06/12 06:27:26;;;;;;;;;3.00;2.00;;;;;21.69;42.05;102005.13;5055269;28;45597;-65
2022/06/12 06:29:51;;;;;;;;;3.00;1.00;;;;;21.76;42.56;101996.09;5051319;28;45556;-67
2022/06/12 06:32:18;;;;;;;;;1.67;1.67;;;;;21.91;41.50;102003.72;5046266;28;45642;-65
2022/06/12 06:34:43;;;;;;;;;2.00;2.00;;;;;21.96;41.98;102007.13;5046418;28;45323;-64
2022/06/12 06:37:11;;;;;;;;;3.00;1.67;;;;;22.12;41.25;102012.09;5045600;28;45382;-66
2022/06/12 06:39:38;;;;;;;;;5.33;2.00;;;;;22.23;41.46;101999.34;5051888;28;45224;-65
2022/06/12 06:42:06;;;;;;;;;2.00;2.00;;;;;22.36;40.74;102005.25;5044299;28;45714;-68
2022/06/12 06:47:23;;;;;;;;;2.00;2.00;;;;;22.53;39.74;101978.97;5039439;28;45731;-66
2022/06/12 06:49:49;;;;;;;;;2.67;2.00;;;;;22.70;39.87;102002.50;5042805;28;45445;-68
2022/06/12 06:52:15;;;;;;;;;3.00;1.33;;;;;22.70;40.31;102002.50;5051333;28;45707;-66
2022/06/12 06:54:40;;;;;;;;;2.00;2.00;;;;;22.84;40.50;102010.13;5055413;28;45361;-67
2022/06/12 06:57:08;;;;;;;;;5.00;5.00;;;;;23.05;40.25;102008.66;5047211;28;45500;-65
2022/06/12 06:59:35;;;;;;;;;3.00;1.67;;;;;23.15;39.43;102004.78;5046631;28;45561;-66
2022/06/12 07:02:01;;;;;;;;;4.67;2.67;;;;;23.32;39.28;102011.41;5049094;28;45516;-67
2022/06/12 07:04:26;;;;;;;;;1.33;1.00;;;;;23.41;38.41;102003.97;5037372;28;45399;-65
2022/06/12 07:06:52;;;;;;;;;2.00;2.00;;;;;23.36;38.05;101986.31;5036594;28;45807;-65
2022/06/12 07:09:18;;;;;;;;;2.00;2.00;;;;;23.35;38.66;102001.50;5036924;28;46079;-66
2022/06/12 07:11:43;;;;;;;;;2.00;2.00;;;;;23.47;38.83;102005.59;5036789;28;45507;-68
2022/06/12 07:14:09;;;;;;;;;4.00;1.00;;;;;23.56;38.52;102007.06;5037186;28;45470;-66
2022/06/12 07:16:45;;;;;;;;;2.00;2.00;;;;;23.63;37.57;102006.84;5037912;28;46169;-68
2022/06/12 07:19:11;;;;;;;;;4.00;2.00;;;;;23.66;38.04;102009.41;5037014;28;45518;-66
2022/06/12 07:21:37;;;;;;;;;1.00;1.00;;;;;23.63;36.95;101998.81;5055057;28;45287;-67
2022/06/12 07:24:03;;;;;;;;;2.33;1.00;;;;;23.60;37.02;102012.28;5040718;28;45569;-67
2022/06/12 07:26:34;;;;;;;;;2.00;1.00;;;;;23.61;38.18;102005.13;5036407;28;46133;-67
2022/06/12 07:29:01;;;;;;;;;2.00;1.67;;;;;23.64;37.57;101986.31;5046596;28;45454;-67
2022/06/12 07:31:29;;;;;;;;;3.00;2.00;;;;;23.83;37.38;102008.03;5027240;28;45580;-66
2022/06/12 07:33:54;;;;;;;;;1.00;1.00;;;;;23.88;37.62;102014.09;5037865;28;45793;-66
2022/06/12 07:36:21;;;;;;;;;2.00;1.33;;;;;23.74;37.85;101998.47;5048357;28;45496;-67
2022/06/12 07:38:57;;;;;;;;;2.67;2.00;;;;;23.74;37.95;102005.66;5051945;28;45324;-66
2022/06/12 07:41:24;;;;;;;;;2.33;2.00;;;;;23.57;37.10;101980.28;5052094;28;45460;-67
2022/06/12 07:43:50;;;;;;;;;3.00;2.00;;;;;23.78;36.80;102009.97;5036876;28;45452;-67
2022/06/12 07:46:18;;;;;;;;;3.00;2.00;;;;;23.84;37.04;102015.97;5036154;28;46142;-67
2022/06/12 07:48:46;;;;;;;;;3.00;2.00;;;;;23.90;37.14;102017.59;5038172;28;45423;-66
2022/06/12 07:51:16;;;;;;;;;2.33;2.33;;;;;23.95;36.87;102018.31;5044258;28;45264;-65
2022/06/12 07:53:42;;;;;;;;;2.00;2.00;;;;;23.99;36.56;102021.72;5044392;28;45509;-66
2022/06/12 07:57:48;;;;;;;;;2.00;2.00;;;;;24.02;37.17;102005.59;5065101;27;45345;-66
2022/06/12 08:00:15;;;;;;;;;2.00;2.00;;;;;24.05;36.47;102000.13;5064340;28;45270;-65
2022/06/12 08:02:42;;;;;;;;;4.00;2.00;;;;;24.17;36.43;102006.88;5065671;28;45535;-66
2022/06/12 08:05:07;;;;;;;;;1.33;1.33;;;;;24.22;36.94;102010.25;5066096;28;45526;-66
2022/06/12 08:07:34;;;;;;;;;1.67;1.67;;;;;24.22;36.09;102005.75;5063579;28;45574;-65
2022/06/12 08:10:00;;;;;;;;;2.33;2.00;;;;;24.23;36.58;101998.63;5067451;28;45560;-67
2022/06/12 08:12:26;;;;;;;;;3.33;1.00;;;;;24.22;35.87;102005.75;5062190;28;45323;-66
2022/06/12 08:14:54;;;;;;;;;2.33;2.00;;;;;24.18;35.95;102005.91;5066544;28;45478;-66
2022/06/12 08:17:20;;;;;;;;;4.00;2.00;;;;;24.19;35.78;102008.56;5061819;27;48146;-65
2022/06/12 08:22:50;;;;;;;;;2.67;2.00;;;;;24.23;36.38;101999.50;5050454;28;45499;-67
2022/06/12 08:25:15;;;;;;;;;1.00;1.00;;;;;24.26;35.61;102006.53;5050828;28;45327;-66
2022/06/12 08:27:48;;;;;;;;;2.00;2.00;;;;;24.15;35.79;101992.66;5052376;28;46273;-67
2022/06/12 08:30:14;;;;;;;;;1.00;0.50;;;;;24.15;35.73;101973.91;5071629;28;45484;-67
2022/06/12 08:32:45;;;;;;;;;4.67;4.67;;;;;24.25;35.59;101988.72;5071936;28;45417;-67
2022/06/12 08:35:18;;;;;;;;;6.00;3.00;;;;;24.26;34.77;101985.13;5073356;28;45422;-68
2022/06/12 08:37:44;;;;;;;;;2.00;2.00;;;;;24.32;35.05;101988.47;5073126;28;45487;-66
2022/06/12 08:40:40;;;;;;;;;1.00;1.00;;;;;24.38;35.41;101994.53;5073334;27;45451;-66
2022/06/12 08:43:13;;;;;;;;;2.00;1.00;;;;;24.39;35.43;101988.22;5072963;28;45602;-66
2022/06/12 08:45:45;;;;;;;;;2.00;2.00;;;;;24.38;35.33;101990.03;5073279;28;45447;-66
2022/06/12 08:48:31;;;;;;;;;2.67;1.00;;;;;24.35;35.39;101990.16;5072817;28;45253;-67
2022/06/12 08:51:09;;;;;;;;;2.00;2.00;;;;;24.21;35.74;101985.28;5071180;28;45504;-67
2022/06/12 08:54:01;;;;;;;;;2.67;2.00;;;;;24.10;34.99;101980.28;5072435;27;45566;-67
2022/06/12 08:56:43;;;;;;;;;1.67;1.67;;;;;24.12;36.13;101983.78;5082180;27;45593;-67
2022/06/12 08:59:38;;;;;;;;;3.67;2.00;;;;;24.19;35.52;101972.88;5092666;27;45550;-67
2022/06/12 09:02:13;;;;;;;;;4.00;2.67;;;;;24.12;35.40;101969.53;5092604;27;45516;-66
2022/06/12 09:04:39;;;;;;;;;2.00;2.00;;;;;24.07;35.35;101969.72;5093112;27;45432;-66
2022/06/12 09:07:15;;;;;;;;;2.67;1.67;;;;;24.07;34.57;101963.50;5091311;27;45448;-66
2022/06/12 09:09:54;;;;;;;;;1.00;1.00;;;;;24.17;34.64;101966.72;5080206;27;46427;-67
2022/06/12 09:12:44;;;;;;;;;1.00;1.00;;;;;24.16;35.25;101973.00;5079186;27;45411;-67
2022/06/12 09:15:43;;;;;;;;;2.00;2.00;;;;;24.21;35.10;101969.22;5079017;27;45383;-67
2022/06/12 09:18:20;;;;;;;;;2.00;2.00;;;;;;;;5079231;28;45173;-66
2022/06/12 09:21:08;;;;;;;;;1.00;1.00;;;;;24.36;35.01;101956.22;5078988;27;46175;-66
2022/06/12 09:24:00;;;;;;;;;1.00;1.00;;;;;24.43;34.75;101963.97;5078968;27;45380;-66
2022/06/12 09:26:31;;;;;;;;;2.67;1.00;;;;;24.50;34.74;101975.34;5067306;28;45580;-68
2022/06/12 09:29:15;;;;;;;;;2.00;1.33;;;;;24.51;34.08;101967.28;5079455;27;45883;-66
2022/06/12 09:31:51;;;;;;;;;2.75;2.00;;;;;24.44;34.63;101972.84;5064941;28;45278;-66
2022/06/12 09:34:52;;;;;;;;;3.33;2.00;;;;;24.41;34.73;101973.84;5066240;27;45421;-66
2022/06/12 09:40:55;;;;;;;;;2.67;2.00;;;;;24.46;35.50;101966.56;5078917;28;45354;-66
2022/06/12 09:43:28;;;;;;;;;4.00;2.33;;;;;24.49;34.60;101966.47;5078584;27;45362;-67
2022/06/12 09:45:53;;;;;;;;;2.50;2.00;;;;;24.52;34.64;101958.31;5078555;28;45341;-67
2022/06/12 09:48:37;;;;;;;;;2.67;1.00;;;;;24.56;35.58;101969.78;5078432;28;45528;-67
2022/06/12 09:51:26;;;;;;;;;3.67;3.00;;;;;24.53;34.36;101961.84;5078953;27;45570;-69
2022/06/12 09:54:12;;;;;;;;;2.00;2.00;;;;;24.47;36.57;101962.09;5078509;27;46091;-71
2022/06/12 09:56:48;;;;;;;;;2.75;2.75;;;;;24.57;36.62;101967.97;5064145;28;45509;-69
2022/06/12 09:59:25;;;;;;;;;4.00;3.00;;;;;24.62;35.58;101955.28;5078601;27;45865;-68
2022/06/12 10:01:57;;;;;;;;;2.67;2.67;;;;;24.66;35.67;101956.94;5059851;28;45497;-67
2022/06/12 10:04:26;;;;;;;;;3.00;3.00;;;;;24.49;35.11;101931.66;5047284;28;47076;-68
2022/06/12 10:07:11;;;;;;;;;1.75;1.75;;;;;24.68;34.50;101960.44;5056780;28;45367;-67
2022/06/12 10:10:01;;;;;;;;;6.00;4.00;;;;;24.65;34.71;101949.81;5076523;28;45477;-67
2022/06/12 10:12:38;;;;;;;;;6.67;6.00;;;;;24.67;34.82;101958.66;5078433;28;45500;-66
2022/06/12 10:15:13;;;;;;;;;6.67;3.00;;;;;24.72;34.73;101957.53;5078443;28;46193;-66
2022/06/12 10:17:51;;;;;;;;;3.00;3.00;;;;;24.74;35.12;101946.78;5078860;28;45431;-67
2022/06/12 10:20:24;;;;;;;;;3.00;3.00;;;;;24.80;34.58;101951.06;5077854;28;45344;-68
2022/06/12 10:22:53;;;;;;;;;3.00;3.00;;;;;24.74;34.48;101947.66;5078787;28;45460;-67
2022/06/12 10:25:33;;;;;;;;;4.50;3.00;;;;;24.68;34.85;101936.31;5060666;28;47052;-68
2022/06/12 10:28:16;;;;;;;;;1.50;1.50;;;;;24.78;34.61;101943.06;5078370;27;45508;-67
2022/06/12 10:30:56;;;;;;;;;3.75;3.25;;;;;24.78;34.58;101944.88;5078124;27;45236;-67
2022/06/12 10:33:31;;;;;;;;;4.00;4.00;;;;;24.79;34.44;101934.06;5078372;27;45385;-65
2022/06/12 10:36:05;;;;;;;;;3.00;3.00;;;;;24.80;34.70;101934.97;5077798;28;45496;-66
2022/06/12 10:38:35;;;;;;;;;3.00;3.00;;;;;24.83;34.66;101932.16;5078094;27;45772;-66
2022/06/12 10:41:06;;;;;;;;;4.00;4.00;;;;;24.84;35.07;101915.13;5078216;27;45366;-66
2022/06/12 10:43:43;;;;;;;;;3.50;2.25;;;;;24.90;35.05;101933.66;5078234;28;45508;-67
2022/06/12 10:46:14;;;;;;;;;4.00;3.00;;;;;24.95;35.02;101927.19;5077465;28;45548;-67
2022/06/12 10:48:42;;;;;;;;;2.00;2.00;;;;;25.04;35.14;101920.59;5063464;28;45481;-66
2022/06/12 10:51:13;;;;;;;;;3.33;3.33;;;;;25.13;35.13;101920.22;5077948;27;45487;-66
2022/06/12 10:53:39;;;;;;;;;3.00;3.00;;;;;25.12;33.80;101896.16;5077680;27;45260;-67
2022/06/12 10:56:24;;;;;;;;;2.33;2.33;;;;;25.29;34.12;101912.44;5076201;28;45899;-67
2022/06/12 10:58:55;;;;;;;;;2.25;2.25;;;;;25.45;33.37;101914.50;5060691;27;45465;-69
2022/06/12 11:01:30;;;;;;;;;2.25;2.25;;;;;25.50;33.07;101907.13;5074696;28;45471;-66
2022/06/12 11:04:20;;;;;;;;;4.75;3.00;;;;;25.49;33.01;101906.28;5071038;27;45480;-66
2022/06/12 11:07:07;;;;;;;;;2.00;2.00;;;;;25.47;33.48;101901.91;5072876;27;45465;-68
2022/06/12 11:09:51;;;;;;;;;1.00;1.00;;;;;25.53;33.59;101909.69;5064052;28;45508;-66
2022/06/12 11:12:38;;;;;;;;;2.50;2.00;;;;;25.55;32.85;101900.63;5074399;28;45365;-67
2022/06/12 11:15:07;;;;;;;;;3.00;3.00;;;;;25.60;33.09;101903.13;5077597;27;45414;-67
2022/06/12 11:17:40;;;;;;;;;2.00;2.00;;;;;25.63;32.79;101888.69;5077177;28;46373;-66
2022/06/12 11:20:37;;;;;;;;;4.00;4.00;;;;;25.67;32.62;101890.31;5077553;28;45425;-69
2022/06/12 11:23:17;;;;;;;;;4.00;3.00;;;;;25.75;32.33;101885.50;5067599;27;45456;-66
2022/06/12 11:25:51;;;;;;;;;4.25;4.25;;;;;25.86;32.55;101876.97;5077362;28;45351;-66
2022/06/12 11:28:53;;;;;;;;;4.00;3.00;;;;;25.90;32.15;101873.25;5063086;28;45422;-66
2022/06/12 11:31:41;;;;;;;;;4.00;3.00;;;;;25.94;32.67;101870.38;5058865;28;45722;-67
2022/06/12 11:34:35;;;;;;;;;9.00;4.67;;;;;25.97;32.43;101872.03;5077237;27;45623;-66
2022/06/12 11:37:06;;;;;;;;;4.50;4.00;;;;;25.99;32.70;101875.53;5065032;28;45426;-67
2022/06/12 11:39:42;;;;;;;;;3.75;3.75;;;;;26.02;32.71;101864.66;5076759;27;45453;-68
2022/06/12 11:42:23;;;;;;;;;4.00;3.00;;;;;26.01;31.97;101860.25;5077124;28;45200;-66
2022/06/12 11:45:02;;;;;;;;;3.25;3.25;;;;;26.07;32.35;101853.72;5077042;28;45421;-66
2022/06/12 11:47:31;;;;;;;;;3.25;3.25;;;;;26.13;32.37;101851.63;5077369;28;45436;-65
2022/06/12 11:50:26;;;;;;;;;5.00;3.00;;;;;26.19;32.89;101848.63;5076624;28;45465;-63
2022/06/12 11:53:25;;;;;;;;;4.00;3.00;;;;;26.25;31.82;101846.66;5077099;27;45513;-64
2022/06/12 11:56:04;;;;;;;;;5.25;2.75;;;;;26.22;31.23;101840.47;5066175;28;45311;-66
2022/06/12 11:58:50;;;;;;;;;5.50;4.00;;;;;26.23;32.00;101839.50;5077247;28;45444;-65
2022/06/12 12:01:28;;;;;;;;;3.75;3.75;;;;;26.28;31.08;101841.13;5077012;27;45402;-67
2022/06/12 12:04:34;;;;;;;;;4.25;4.00;;;;;26.20;32.18;101820.00;5077089;28;45472;-67
2022/06/12 12:07:03;;;;;;;;;3.25;3.25;;;;;26.37;31.21;101838.00;4974729;28;45627;-66
2022/06/12 12:09:48;;;;;;;;;5.00;3.00;;;;;26.41;31.39;101837.78;5053885;27;45560;-68
2022/06/12 12:12:20;;;;;;;;;5.75;2.00;;;;;26.48;31.07;101827.63;5076454;28;45437;-65
2022/06/12 12:14:49;;;;;;;;;2.75;2.25;;;;;26.55;30.73;101821.06;5076758;27;45382;-65
2022/06/12 12:17:29;;;;;;;;;2.25;2.25;;;;;26.64;30.54;101817.03;5058741;28;45410;-67